Portada
METAR-TAF:

METAR-TAF

Aeropuertos :

Aeropuerto Internacional de Niza-Costa Azul

Niza, Francia

latitud: 43-39N, longitud: 007-12E, altitud: 4 m

Observación

El informe se hizo hace 16 minutos, a las 12:30 UTC
Viento 4 kt del sur
Temperatura 17°C
Humedad 52%
Presión 1020 hPa
Visibilidad 10 km o más
sin nubes por debajo de 1500 m y sin presencia de cumulonimbus.

METAR: LFMN 041230Z 18004KT CAVOK 17/07 Q1020 NOSIG

Hora: 14:46 (12:46 UTC)

Pronóstico

El informe se hizo hace 4 horas y 46 minutos, a las 08:00 UTC
Pronóstico válido del 04 a las 09 UTC al 05 a las 15 UTC
Viento 6 kt del sur
Visibilidad 10 km o más
sin nubes por debajo de 1500 m y sin presencia de cumulonimbus.
Evolucionando progresivamente
del 04 a las 18 UTC al 04 a las 20 UTC
Viento 10 kt del norte-noroeste
Evolucionando progresivamente
del 05 a las 10 UTC al 05 a las 12 UTC
Viento 10 kt del sur-suroeste

TAF: LFMN 040800Z 0409/0515 18006KT CAVOK BECMG 0418/0420 33010KT BECMG 0510/0512 21010KT

Observaciones y pronósticos meteorológicos de más de 4000 aeropuertos (mensajes METAR y TAF).

Los puntos amarillos y rojos representan las estaciones disponibles.

Ponga el ratón en el punto deseado para ver el nombre de la estación.

Haga clic para ver las observaciones y los pronósticos meteorológicos.

Para cambiar el mapa : haga clic en los botones verdes con una cruz de color negro para hacer un zoom, en el botón verde con un guión para alejar o en las flechas verdes para mapas adyacentes.


METAR-TAF: